AirNav   Bose ProFlight Series 2 Headset
 
 892 users online  

6FA6 North Bay Hospital Heliport
New Port Richey, Florida, USA

GOING TO NEW PORT RICHEY?


FAA INFORMATION EFFECTIVE 02 JANUARY 2020

Location

FAA Identifier: 6FA6
Lat/Long: 28-15-20.0000N 082-42-50.0000W
28-15.333333N 082-42.833333W
28.2555556,-82.7138889
(estimated)
Elevation: 17 ft. / 5 m (estimated)
From city: 1 mile NE of NEW PORT RICHEY, FL
Time zone: UTC -5 (UTC -4 during Daylight Saving Time)
Zip code: 34653

Heliport Operations

Heliport use: Private use. Permission required prior to landing
Activation date: 10/2010
Control tower: no
ARTCC: MIAMI CENTER
FSS: SAINT PETERSBURG FLIGHT SERVICE STATION
Attendance: UNATNDD
Wind indicator: lighted
Segmented circle: yes
Lights: ACTVT H1 FLD LGTS - 123.05
Beacon: white-green-yellow (heliport)

Heliport Communications

WX AWOS-3P at CLW (17 nm S): 119.225 (727-449-2184)
WX ASOS at BKV (19 nm NE): 134.725 (352-799-5881)
WX ASOS at TPA (19 nm SE): PHONE 813-873-7228

Nearby radio navigation aids

VOR radial/distance  VOR name  Freq  Var
PIEr001/20.9ST PETERSBURG VORTAC116.4005W

 
NDB name  Hdg/Dist  Freq  Var  ID
COSME321/14.336805WTP - .--.

Heliport Services

Runway Information

Helipad H1

Dimensions: 50 x 50 ft. / 15 x 15 m
Surface: concrete
Runway edge lights: FLD
Latitude: 28-15.333333N
Longitude: 082-42.833333W
Elevation: 17.0 ft.
Traffic pattern: leftleft

Heliport Ownership and Management from official FAA records

Ownership: Privately-owned
Owner: MORTON PLANT HOSPITAL ASSOC. INC
2985 DREW STREET
CLEARWATER, FL 33759
Phone 727-519-1787
Manager: CHRIS CERRATO
6600 MADISON ST
NEW PORT RICHEY, FL 34652
Phone 727-815-7333

Additional Remarks

FOR CD CTC TAMPA APCH AT 813-878-2528

Instrument Procedures

There are no published instrument procedures at 6FA6.

Some nearby airports with instrument procedures:

KCLW - Clearwater Air Park (17 nm S)
KBKV - Brooksville-Tampa Bay Regional Airport (19 nm NE)
KTPA - Tampa International Airport (19 nm SE)
KPIE - St Pete-Clearwater International Airport (21 nm S)
KVDF - Tampa Executive Airport (24 nm SE)
 
Loc | Ops | Rwys | IFR | FBO | Links
Com | Nav | Svcs | Stats | Notes


 
Aerial photo
No photo
 
Sectional chart

 
Airport distance calculator
Flying to North Bay Hospital Heliport? Find the distance to fly.

From to 6FA6

Sunrise and sunset
Times for 21-Jan-2020
 Local
(UTC-5)
 Zulu
(UTC)
Morning civil twilight06:5911:59
Sunrise07:2412:24
Sunset18:0123:01
Evening civil twilight18:2623:26

Current date and time
Zulu (UTC)  21-Jan-2020 13:03:44
Local (UTC-5)  21-Jan-2020 08:03:44
 
METAR
KCLW 
17nm S 
211255Z AUTO 36007KT 10SM CLR 05/00 A3027 RMK AO2
KBKV 
19nm NE 
211253Z 35006KT 10SM CLR 03/M02 A3028 RMK AO2 SLP253 T00331017
KTPA 
20nm SE 
211253Z 01010KT 10SM FEW030 05/M01 A3027 RMK AO2 SLP249 T00501006
KPIE 
20nm S 
211253Z 36012G19KT 10SM CLR 07/01 A3027 RMK AO2 SLP249 T00720006
KVDF 
24nm SE 
211255Z AUTO 36008KT 10SM CLR 05/02 A3026 RMK AO2
KTPF 
25nm SE 
211255Z AUTO 36005KT 10SM CLR 06/03 A3026 RMK AO2
KMCF 
26nm SE 
211156Z 02006KT 10SM CLR 05/01 A3024 RMK SLP243
KZPH 
30nm E 
211255Z AUTO 35010KT 10SM CLR 03/01 A3026 RMK A02 T00350005
KSPG 
30nm S 
211253Z 35009KT 10SM CLR 07/03 A3024 RMK AO2 SLP240 T00720028
KPCM 
33nm SE 
211255Z AUTO 34006KT 10SM CLR 04/03 A3026 RMK AO2
TAF
KTPA 
20nm SE 
211136Z 2112/2218 36010KT P6SM SKC FM211500 34013G21KT P6SM SKC FM212300 35011KT P6SM SKC FM220400 01011G18KT P6SM SKC FM221500 36010KT P6SM SKC
KPIE 
20nm S 
211136Z 2112/2212 36011G18KT P6SM SKC FM211400 35013G21KT P6SM SKC FM220100 36015G25KT P6SM SKC
NOTAMs
Click for the latest NOTAMs
NOTAMs are issued by the DoD/FAA and will open in a separate window not controlled by AirNav.

 

 
 

Would you like to see your business listed on this page?

 If your business provides an interesting product or service to pilots, flight crews, aircraft, or users of the North Bay Hospital Heliport, you should consider listing it here.  To start the listing process, click on the button below
 
Add a business
 

Other Pages about North Bay Hospital Heliport

Update a link
 
Copyright © AirNav, LLC. All rights reserved. Privacy Policy  Contact